Time;durP1;ratioP1;P1;durP2;ratioP2;P2;SDS_P1;SDS_P2;PMS_P1;PMS_P2;Temp;Humidity;BMP_temperature;BMP_pressure;BME280_temperature;BME280_humidity;BME280_pressure;Samples;Min_cycle;Max_cycle;Signal;HPM_P1;HPM_P2
2021/09/29 00:01:32;;;;;;;4.12;1.10;;;;;;;10.19;76.33;100935.56;1726743;80;21078;-53
2021/09/29 00:04:01;;;;;;;7.00;1.10;;;;;;;10.20;76.40;100934.65;1754050;80;21025;-53
2021/09/29 00:06:27;;;;;;;1.95;1.00;;;;;;;10.22;76.45;100939.50;1736866;81;21076;-52
2021/09/29 00:08:54;;;;;;;6.85;1.27;;;;;;;10.23;76.53;100937.23;1722920;81;21109;-53
2021/09/29 00:11:20;;;;;;;3.42;1.27;;;;;;;10.24;76.54;100936.31;1722103;80;22177;-54
2021/09/29 00:13:47;;;;;;;1.57;1.00;;;;;;;10.23;76.53;100936.77;1747540;80;21623;-54
2021/09/29 00:16:14;;;;;;;2.45;1.30;;;;;;;10.23;76.57;100934.08;1738054;81;21108;-53
2021/09/29 00:18:41;;;;;;;3.35;1.20;;;;;;;10.22;76.59;100935.46;1722056;82;21581;-53
2021/09/29 00:21:08;;;;;;;6.72;1.07;;;;;;;10.20;76.66;100935.98;1750829;80;21064;-53
2021/09/29 00:23:35;;;;;;;4.03;1.00;;;;;;;10.20;76.68;100934.65;1737763;80;21624;-53
2021/09/29 00:26:01;;;;;;;1.20;0.75;;;;;;;10.20;76.78;100932.84;1717931;82;21638;-54
2021/09/29 00:28:27;;;;;;;5.08;0.93;;;;;;;10.20;76.76;100937.34;1719274;80;21124;-53
2021/09/29 00:31:02;;;;;;;3.85;0.88;;;;;;;10.19;76.80;100930.19;1742056;81;21072;-53
2021/09/29 00:33:22;;;;;;;2.95;0.98;;;;;;;10.20;76.84;100940.91;1724831;80;21431;-53
2021/09/29 00:35:48;;;;;;;3.00;0.95;;;;;;;10.21;76.91;100938.61;1755235;79;21419;-52
2021/09/29 00:38:15;;;;;;;3.67;0.98;;;;;;;10.23;76.84;100934.54;1740911;81;22583;-51
2021/09/29 00:40:41;;;;;;;3.25;1.40;;;;;;;10.23;76.83;100938.58;1754967;78;21305;-52
2021/09/29 00:43:08;;;;;;;4.20;1.12;;;;;;;10.22;76.84;100939.03;1749810;78;20988;-52
2021/09/29 00:45:34;;;;;;;1.25;0.80;;;;;;;10.20;76.79;100940.91;1751343;78;20973;-51
2021/09/29 00:48:00;;;;;;;6.08;1.10;;;;;;;10.19;76.82;100938.26;1744997;79;20953;-52
2021/09/29 00:50:27;;;;;;;1.72;0.82;;;;;;;10.18;76.87;100938.72;1744878;79;22144;-52
2021/09/29 00:52:54;;;;;;;2.02;1.00;;;;;;;10.18;76.83;100945.45;1744824;79;20917;-52
2021/09/29 00:55:20;;;;;;;3.12;1.20;;;;;;;10.19;76.88;100940.95;1703769;79;21080;-51
2021/09/29 00:57:46;;;;;;;3.58;0.93;;;;;;;10.20;76.88;100938.69;1746361;79;20972;-53
2021/09/29 01:00:14;;;;;;;4.00;1.07;;;;;;;10.20;76.94;100942.26;1747129;79;20972;-52
2021/09/29 01:02:40;;;;;;;1.40;1.12;;;;;;;10.22;76.87;100942.19;1748711;79;21779;-53
2021/09/29 01:05:07;;;;;;;3.52;1.30;;;;;;;10.24;76.84;100948.41;1748342;78;20972;-53
2021/09/29 01:07:45;;;;;;;2.35;0.90;;;;;;;10.23;76.80;100950.22;1744747;79;20988;-53
2021/09/29 01:10:40;;;;;;;1.62;1.00;;;;;;;10.21;76.75;100952.53;1742976;79;21052;-53
2021/09/29 01:13:39;;;;;;;1.57;0.90;;;;;;;10.21;76.75;100957.91;1740861;79;21040;-51
2021/09/29 01:16:06;;;;;;;5.00;1.20;;;;;;;10.20;76.76;100957.52;1741660;79;21635;-53
2021/09/29 01:18:34;;;;;;;4.90;1.02;;;;;;;10.17;76.77;100949.05;1722602;79;21068;-53
2021/09/29 01:21:09;;;;;;;1.47;0.88;;;;;;;10.15;76.77;100951.33;1746238;79;20964;-53
2021/09/29 01:24:10;;;;;;;2.65;1.00;;;;;;;10.17;76.80;100953.52;1744524;79;21072;-52
2021/09/29 01:26:39;;;;;;;1.60;0.93;;;;;;;10.17;76.78;100959.82;1755057;78;21025;-53
2021/09/29 01:29:08;;;;;;;2.37;1.07;;;;;;;10.16;76.74;100966.09;1746858;78;21594;-52
2021/09/29 01:31:36;;;;;;;3.20;1.15;;;;;;;10.14;76.72;100966.59;1743711;79;21127;-52
2021/09/29 01:34:04;;;;;;;3.40;1.80;;;;;;;10.11;76.70;100958.62;1740752;79;21051;-52
2021/09/29 01:36:30;;;;;;;2.55;0.98;;;;;;;10.09;76.72;100961.80;1743325;79;20906;-52
2021/09/29 01:38:58;;;;;;;2.98;1.20;;;;;;;10.08;76.67;100961.84;1746057;79;20953;-53
2021/09/29 01:41:27;;;;;;;2.72;0.90;;;;;;;10.07;76.74;100969.48;1752702;78;21046;-52
2021/09/29 01:43:56;;;;;;;1.95;0.80;;;;;;;10.07;76.75;100966.80;1767440;78;20986;-52
2021/09/29 01:46:24;;;;;;;1.92;0.90;;;;;;;10.07;76.72;100967.68;1765062;78;21053;-52
2021/09/29 01:49:02;;;;;;;4.03;0.90;;;;;;;10.08;76.73;100966.76;1759378;78;21488;-51
2021/09/29 01:51:35;;;;;;;1.35;0.90;;;;;;;10.06;76.69;100969.95;1761452;78;21514;-51
2021/09/29 01:54:02;;;;;;;1.10;0.90;;;;;;;10.03;76.66;100967.81;1764587;78;21399;-51
2021/09/29 01:56:28;;;;;;;1.20;0.90;;;;;;;9.98;76.73;100974.65;1762121;78;22350;-52
2021/09/29 01:58:55;;;;;;;1.98;1.00;;;;;;;9.96;76.74;100974.26;1761283;78;21070;-51
2021/09/29 02:01:21;;;;;;;1.00;0.70;;;;;;;9.91;76.72;100977.55;1763373;78;21129;-50
2021/09/29 02:03:48;;;;;;;2.10;0.75;;;;;;;9.87;76.84;100972.23;1766301;78;21058;-51
2021/09/29 02:06:14;;;;;;;1.07;0.80;;;;;;;9.86;76.88;100973.64;1762002;78;21050;-51
2021/09/29 02:08:40;;;;;;;1.12;0.78;;;;;;;9.82;76.89;100975.52;1764399;78;21074;-51
2021/09/29 02:11:07;;;;;;;7.95;0.80;;;;;;;9.84;77.00;100980.86;1762486;78;21065;-51
2021/09/29 02:13:33;;;;;;;1.37;0.90;;;;;;;9.83;77.03;100976.41;1766066;78;21141;-50
2021/09/29 02:16:00;;;;;;;1.52;1.37;;;;;;;9.83;77.04;100971.91;1760639;78;21165;-51
2021/09/29 02:18:26;;;;;;;2.15;0.80;;;;;;;9.83;77.01;100978.63;1761448;78;22822;-51
2021/09/29 02:20:53;;;;;;;2.47;0.70;;;;;;;9.79;76.97;100975.58;1765147;78;21164;-51
2021/09/29 02:23:21;;;;;;;2.27;0.80;;;;;;;9.76;77.06;100974.80;1761180;78;21413;-51
2021/09/29 02:25:48;;;;;;;4.20;0.70;;;;;;;9.74;77.08;100978.86;1743534;79;21353;-51
2021/09/29 02:28:15;;;;;;;2.47;0.60;;;;;;;9.73;77.07;100982.47;1771941;80;21403;-51
2021/09/29 02:30:41;;;;;;;2.25;0.70;;;;;;;9.72;77.17;100987.42;1766835;80;21586;-51
2021/09/29 02:33:07;;;;;;;0.72;0.60;;;;;;;9.73;77.20;100989.19;1770552;78;21549;-51
2021/09/29 02:35:34;;;;;;;3.12;0.70;;;;;;;9.74;77.17;100989.62;1764992;78;21568;-50
2021/09/29 02:38:00;;;;;;;0.98;0.70;;;;;;;9.74;77.14;100996.34;1767094;80;20952;-51
2021/09/29 02:40:26;;;;;;;1.90;0.80;;;;;;;9.74;77.18;100994.11;1762686;80;21075;-51
2021/09/29 02:42:52;;;;;;;1.10;0.70;;;;;;;9.73;77.10;100999.95;1759900;78;21064;-51
2021/09/29 02:45:19;;;;;;;1.02;0.75;;;;;;;9.72;77.08;100999.98;1762580;80;21119;-51
2021/09/29 02:47:45;;;;;;;3.22;0.70;;;;;;;9.70;77.03;100995.98;1764014;80;21194;-51
2021/09/29 02:50:12;;;;;;;2.92;0.70;;;;;;;9.68;77.08;101003.69;1765170;80;21099;-51
2021/09/29 02:52:39;;;;;;;1.10;0.65;;;;;;;9.65;77.07;100999.25;1758812;78;21366;-51
2021/09/29 02:55:06;;;;;;;2.00;0.60;;;;;;;9.64;77.11;101000.17;1763004;80;21725;-51
2021/09/29 02:57:34;;;;;;;3.02;0.60;;;;;;;9.62;77.15;101007.38;1761193;80;21361;-50
2021/09/29 03:00:01;;;;;;;0.93;0.60;;;;;;;9.62;77.21;101006.50;1764121;80;22004;-51
2021/09/29 03:02:28;;;;;;;0.80;0.70;;;;;;;9.61;77.24;101008.80;1762135;78;22813;-51
2021/09/29 03:04:54;;;;;;;3.47;0.70;;;;;;;9.63;77.30;101006.92;1763418;80;23013;-50
2021/09/29 03:07:20;;;;;;;1.75;0.70;;;;;;;9.64;77.26;101012.27;1764751;80;21724;-51
2021/09/29 03:09:46;;;;;;;2.55;0.80;;;;;;;9.65;77.30;101012.70;1765115;80;21578;-51
2021/09/29 03:12:13;;;;;;;1.85;0.70;;;;;;;9.64;77.28;101016.30;1764765;78;21033;-51
2021/09/29 03:14:39;;;;;;;1.62;0.75;;;;;;;9.64;77.28;101016.30;1760974;80;21142;-51
2021/09/29 03:17:06;;;;;;;1.30;0.60;;;;;;;9.64;77.27;101018.10;1766314;80;21052;-51
2021/09/29 03:19:32;;;;;;;1.50;0.60;;;;;;;9.64;77.26;101016.30;1762580;78;21335;-51
2021/09/29 03:22:01;;;;;;;1.35;0.60;;;;;;;9.64;77.31;101015.42;1767045;78;20929;-51
2021/09/29 03:24:27;;;;;;;1.25;0.60;;;;;;;9.63;77.23;101010.50;1767267;80;21002;-50
2021/09/29 03:26:53;;;;;;;3.25;0.68;;;;;;;9.64;77.22;101012.73;1766972;80;20968;-50
2021/09/29 03:29:20;;;;;;;2.30;0.60;;;;;;;9.63;77.12;101005.58;1764831;78;20937;-51
2021/09/29 03:31:46;;;;;;;4.15;0.60;;;;;;;9.61;77.01;101011.48;1769415;80;21706;-52
2021/09/29 03:34:13;;;;;;;2.25;0.80;;;;;;;9.57;76.93;101012.00;1767356;80;20871;-50
2021/09/29 03:36:40;;;;;;;0.80;0.60;;;;;;;9.54;76.90;101025.96;1765609;80;20969;-51
2021/09/29 03:39:06;;;;;;;1.77;0.62;;;;;;;9.49;76.86;101029.66;1768197;78;21454;-51
2021/09/29 03:41:33;;;;;;;1.20;1.05;;;;;;;9.46;76.86;101031.52;1767357;78;20906;-51
2021/09/29 03:43:59;;;;;;;0.80;0.60;;;;;;;9.45;76.85;101035.12;1756907;79;22572;-52
2021/09/29 03:46:26;;;;;;;1.80;0.50;;;;;;;9.43;76.87;101038.33;1756915;80;20992;-51
2021/09/29 03:48:52;;;;;;;1.85;0.60;;;;;;;9.41;76.83;101037.02;1758177;78;21797;-51
2021/09/29 03:51:18;;;;;;;0.70;0.60;;;;;;;9.42;76.78;101038.79;1762409;79;21400;-51
2021/09/29 03:53:45;;;;;;;0.60;0.50;;;;;;;9.40;76.67;101035.25;1758736;79;20878;-50
2021/09/29 03:56:12;;;;;;;4.12;0.60;;;;;;;9.37;76.65;101033.97;1758436;80;21455;-51
2021/09/29 03:58:38;;;;;;;1.55;0.50;;;;;;;9.36;76.63;101031.30;1757955;78;21420;-52
2021/09/29 04:01:04;;;;;;;0.70;0.50;;;;;;;9.32;76.55;101029.16;1755657;80;21331;-51
2021/09/29 04:03:31;;;;;;;0.70;0.60;;;;;;;9.29;76.58;101041.77;1754886;79;21538;-51
2021/09/29 04:05:58;;;;;;;3.25;0.50;;;;;;;9.27;76.58;101040.95;1755768;78;21033;-51
2021/09/29 04:08:24;;;;;;;2.20;0.50;;;;;;;9.26;76.64;101037.37;1755768;79;21074;-51
2021/09/29 04:10:50;;;;;;;2.95;0.40;;;;;;;9.27;76.61;101042.30;1757176;79;21100;-51
2021/09/29 04:13:17;;;;;;;0.60;0.50;;;;;;;9.24;76.44;101039.20;1758423;80;21037;-51
2021/09/29 04:15:43;;;;;;;0.60;0.47;;;;;;;9.20;76.55;101044.66;1756696;78;21793;-51
2021/09/29 04:18:10;;;;;;;1.40;0.60;;;;;;;9.19;76.61;101053.17;1754961;80;21135;-52
2021/09/29 04:20:36;;;;;;;2.77;0.60;;;;;;;9.19;76.64;101050.95;1757896;80;21600;-52
2021/09/29 04:23:02;;;;;;;0.90;0.70;;;;;;;9.17;76.61;101055.50;1759087;80;21108;-52
2021/09/29 04:25:29;;;;;;;0.50;0.50;;;;;;;9.15;76.51;101060.90;1754691;79;21093;-52
2021/09/29 04:27:55;;;;;;;0.53;0.50;;;;;;;9.12;76.49;101055.58;1759936;80;20898;-51
2021/09/29 04:30:21;;;;;;;1.20;0.50;;;;;;;9.11;76.49;101064.09;1758898;80;21262;-51
2021/09/29 04:32:48;;;;;;;0.40;0.40;;;;;;;9.09;76.46;101060.58;1753073;79;22107;-51
2021/09/29 04:35:15;;;;;;;0.80;0.45;;;;;;;9.09;76.49;101062.38;1757523;78;21499;-52
2021/09/29 04:37:41;;;;;;;0.55;0.50;;;;;;;9.12;76.47;101062.30;1754789;80;22604;-51
2021/09/29 04:40:09;;;;;;;0.40;0.40;;;;;;;9.14;76.38;101065.84;1753257;79;21644;-51
2021/09/29 04:42:35;;;;;;;1.80;0.50;;;;;;;9.13;76.33;101064.52;1760328;78;21218;-52
2021/09/29 04:45:01;;;;;;;0.70;0.60;;;;;;;9.11;76.28;101066.78;1764448;80;21397;-51
2021/09/29 04:47:28;;;;;;;3.15;0.60;;;;;;;9.07;76.30;101073.16;1765965;78;21512;-52
2021/09/29 04:49:54;;;;;;;0.55;0.53;;;;;;;9.04;76.30;101076.34;1765947;78;21052;-51
2021/09/29 04:52:21;;;;;;;0.65;0.50;;;;;;;9.01;76.36;101076.44;1763815;78;21071;-51
2021/09/29 04:54:47;;;;;;;1.60;0.50;;;;;;;8.98;76.38;101082.74;1763563;80;21099;-52
2021/09/29 04:57:13;;;;;;;1.57;0.50;;;;;;;8.96;76.31;101084.56;1765506;80;21135;-52
2021/09/29 04:59:40;;;;;;;0.70;0.50;;;;;;;8.94;76.35;101081.02;1766716;80;21114;-52
2021/09/29 05:02:06;;;;;;;0.50;0.50;;;;;;;8.97;76.44;101088.14;1765794;80;21064;-51
2021/09/29 05:04:32;;;;;;;0.80;0.50;;;;;;;8.97;76.40;101086.34;1701555;80;21689;-51
2021/09/29 05:07:00;;;;;;;1.70;0.95;;;;;;;9.00;76.38;101088.09;1762440;80;21723;-52
2021/09/29 05:09:26;;;;;;;2.77;0.75;;;;;;;9.01;76.28;101092.55;1762027;80;22064;-51
2021/09/29 05:12:03;;;;;;;0.82;0.80;;;;;;;8.98;76.24;101097.52;1773059;78;21387;-52
2021/09/29 05:14:29;;;;;;;0.80;0.60;;;;;;;8.96;76.25;101092.62;1766029;78;21036;-51
2021/09/29 05:16:56;;;;;;;2.05;0.60;;;;;;;8.95;76.18;101101.59;1761760;80;21386;-51
2021/09/29 05:19:22;;;;;;;0.90;0.70;;;;;;;8.95;76.19;101095.34;1766490;78;21409;-52
2021/09/29 05:21:48;;;;;;;1.25;0.80;;;;;;;8.94;76.21;101099.81;1761706;78;21106;-52
2021/09/29 05:24:15;;;;;;;1.80;0.90;;;;;;;8.96;76.22;101104.70;1763013;80;21685;-51
2021/09/29 05:26:42;;;;;;;2.10;0.95;;;;;;;8.97;76.14;101099.77;1766567;80;21364;-52
2021/09/29 05:29:09;;;;;;;1.82;0.85;;;;;;;8.96;76.16;101104.70;1770862;78;21482;-51
2021/09/29 05:31:37;;;;;;;1.02;0.93;;;;;;;9.00;76.12;101106.89;1753313;80;21001;-51
2021/09/29 05:34:03;;;;;;;4.03;1.25;;;;;;;9.00;76.07;101113.14;1768856;79;21069;-51
2021/09/29 05:36:30;;;;;;;1.40;1.30;;;;;;;8.99;75.99;101114.06;1768715;78;21055;-51
2021/09/29 05:38:56;;;;;;;1.57;1.32;;;;;;;8.96;75.83;101112.77;1762362;78;21624;-51
2021/09/29 05:41:22;;;;;;;1.98;0.88;;;;;;;8.89;75.70;101112.47;1766617;80;21476;-52
2021/09/29 05:43:49;;;;;;;1.00;0.80;;;;;;;8.81;75.73;101115.76;1757487;79;21123;-52
2021/09/29 05:46:15;;;;;;;1.42;0.90;;;;;;;8.76;75.95;101119.00;1754508;79;21097;-51
2021/09/29 05:48:43;;;;;;;1.42;0.80;;;;;;;8.79;76.06;101126.09;1759849;78;21045;-52
2021/09/29 05:51:09;;;;;;;1.12;0.85;;;;;;;8.82;75.99;101112.62;1757412;79;21029;-51
2021/09/29 05:53:36;;;;;;;0.95;0.88;;;;;;;8.85;75.95;101116.11;1760948;80;21036;-52
2021/09/29 05:56:02;;;;;;;2.17;1.30;;;;;;;8.89;75.88;101118.29;1756991;78;21080;-52
2021/09/29 05:58:29;;;;;;;2.90;1.55;;;;;;;8.91;75.79;101115.13;1758886;80;21551;-52
2021/09/29 06:00:57;;;;;;;2.12;1.40;;;;;;;8.95;75.66;101125.77;1757517;79;21040;-52
2021/09/29 06:03:24;;;;;;;4.67;1.67;;;;;;;8.93;75.40;101122.22;1754283;80;21065;-52
2021/09/29 06:05:52;;;;;;;1.00;0.90;;;;;;;8.92;75.30;101120.92;1759979;78;21675;-52
2021/09/29 06:08:18;;;;;;;2.67;0.90;;;;;;;8.90;75.32;101120.06;1754702;79;21539;-51
2021/09/29 06:10:44;;;;;;;2.17;1.00;;;;;;;8.92;75.37;101124.95;1753250;79;21127;-52
2021/09/29 06:13:11;;;;;;;1.27;0.93;;;;;;;8.97;75.39;101126.62;1754470;80;21072;-52
2021/09/29 06:15:37;;;;;;;1.02;0.80;;;;;;;9.04;75.29;101127.38;1754251;78;21120;-51
2021/09/29 06:18:04;;;;;;;2.45;0.88;;;;;;;9.09;75.15;101125.50;1758746;80;21041;-52
2021/09/29 06:20:32;;;;;;;1.12;1.00;;;;;;;9.13;74.94;101128.53;1737034;78;21111;-51
2021/09/29 06:23:00;;;;;;;6.62;1.10;;;;;;;9.15;74.95;101128.05;1751052;80;21101;-51
2021/09/29 06:25:27;;;;;;;1.30;0.98;;;;;;;9.17;74.84;101129.38;1758364;78;20901;-51
2021/09/29 06:27:53;;;;;;;1.27;0.90;;;;;;;9.18;74.85;101126.66;1770982;80;20934;-51
2021/09/29 06:30:19;;;;;;;1.10;1.00;;;;;;;9.25;74.73;101128.75;1767330;80;20953;-51
2021/09/29 06:32:46;;;;;;;5.25;0.88;;;;;;;9.26;74.47;101132.75;1775728;78;20966;-52
2021/09/29 06:35:12;;;;;;;3.22;0.80;;;;;;;9.27;74.42;101133.16;1761685;80;21491;-51
2021/09/29 06:37:42;;;;;;;5.05;0.80;;;;;;;9.31;74.49;101138.91;1760187;78;20953;-52
2021/09/29 06:40:12;;;;;;;1.02;0.93;;;;;;;9.36;74.38;101132.08;1761387;79;20917;-52
2021/09/29 06:42:39;;;;;;;5.40;1.15;;;;;;;9.40;74.19;101135.14;1765740;79;20906;-51
2021/09/29 06:45:06;;;;;;;6.45;1.40;;;;;;;9.45;74.19;101135.91;1762406;79;20933;-51
2021/09/29 06:47:33;;;;;;;2.92;1.25;;;;;;;9.49;74.19;101133.14;1756891;80;21574;-51
2021/09/29 06:49:59;;;;;;;1.82;1.10;;;;;;;9.56;74.03;101138.37;1760748;79;21392;-52
2021/09/29 06:52:25;;;;;;;1.50;1.10;;;;;;;9.58;73.77;101142.80;1758241;78;20874;-51
2021/09/29 06:54:52;;;;;;;1.20;1.10;;;;;;;9.60;73.78;101139.63;1753426;80;21084;-51
2021/09/29 06:57:18;;;;;;;1.57;1.00;;;;;;;9.64;73.62;101140.42;1752719;80;21060;-51
2021/09/29 06:59:44;;;;;;;2.55;0.80;;;;;;;9.66;73.46;101134.11;1754522;80;23300;-52
2021/09/29 07:02:11;;;;;;;3.33;0.90;;;;;;;9.72;73.61;101138.45;1754618;78;21116;-52
2021/09/29 07:04:37;;;;;;;1.00;0.90;;;;;;;9.80;73.51;101138.70;1757609;79;21086;-51
2021/09/29 07:07:04;;;;;;;4.92;1.07;;;;;;;9.87;73.14;101138.09;1756152;80;21032;-51
2021/09/29 07:09:30;;;;;;;2.62;1.27;;;;;;;9.91;72.86;101141.14;1756863;78;21681;-51
2021/09/29 07:11:58;;;;;;;4.62;1.10;;;;;;;9.94;72.77;101150.50;1754144;79;21596;-51
2021/09/29 07:14:24;;;;;;;2.17;1.37;;;;;;;9.97;72.59;101145.03;1752483;80;21491;-51
2021/09/29 07:16:52;;;;;;;1.27;1.10;;;;;;;10.01;72.48;101152.58;1757838;79;20973;-52
2021/09/29 07:19:19;;;;;;;1.92;1.40;;;;;;;10.03;72.24;101146.70;1751234;79;21251;-51
2021/09/29 07:21:45;;;;;;;6.12;1.22;;;;;;;10.03;72.13;101152.09;1754793;79;21394;-51
2021/09/29 07:24:12;;;;;;;3.62;1.17;;;;;;;10.06;72.12;101156.03;1754826;79;22805;-52
2021/09/29 07:26:38;;;;;;;1.25;1.00;;;;;;;10.08;72.05;101144.78;1758275;80;21429;-51
2021/09/29 07:29:04;;;;;;;1.30;1.20;;;;;;;10.12;71.90;101142.45;1755522;79;21352;-52
2021/09/29 07:31:30;;;;;;;3.20;1.20;;;;;;;10.17;71.84;101148.59;1755405;80;21704;-51
2021/09/29 07:33:57;;;;;;;4.50;1.50;;;;;;;10.22;71.79;101146.23;1762111;80;21542;-52
2021/09/29 07:36:24;;;;;;;4.95;1.45;;;;;;;10.29;71.63;101142.95;1759600;79;21541;-52
2021/09/29 07:38:50;;;;;;;1.20;1.10;;;;;;;10.39;71.55;101140.42;1755822;80;20926;-51
2021/09/29 07:41:17;;;;;;;1.65;1.55;;;;;;;10.48;71.32;101136.61;1761000;80;21379;-52
2021/09/29 07:43:44;;;;;;;1.50;1.30;;;;;;;10.55;71.08;101136.88;1761682;80;22047;-52
2021/09/29 07:46:10;;;;;;;3.92;1.02;;;;;;;10.60;70.65;101139.89;1765157;80;21080;-52
2021/09/29 07:48:36;;;;;;;3.98;0.90;;;;;;;10.66;70.43;101140.64;1765359;80;21086;-52
2021/09/29 07:51:03;;;;;;;2.55;0.93;;;;;;;10.73;70.07;101140.42;1761862;80;21033;-52
2021/09/29 07:53:29;;;;;;;3.62;0.80;;;;;;;10.79;69.95;101140.28;1765388;80;21100;-52
2021/09/29 07:55:56;;;;;;;1.62;0.90;;;;;;;10.88;69.74;101140.03;1766623;80;21461;-52
2021/09/29 07:58:24;;;;;;;0.90;0.82;;;;;;;10.97;69.54;101145.64;1762402;80;22394;-52
2021/09/29 08:00:52;;;;;;;0.70;0.70;;;;;;;11.07;69.13;101150.27;1763646;80;20983;-52
2021/09/29 08:03:19;;;;;;;3.80;1.07;;;;;;;11.09;68.43;101149.31;1770609;80;20962;-52
2021/09/29 08:05:45;;;;;;;1.00;0.90;;;;;;;11.06;68.17;101145.84;1765221;80;21126;-52
2021/09/29 08:08:12;;;;;;;0.98;0.80;;;;;;;11.04;68.07;101149.92;1763121;78;21111;-52
2021/09/29 08:10:40;;;;;;;1.20;1.05;;;;;;;11.02;67.81;101145.03;1765696;78;21111;-52
2021/09/29 08:13:06;;;;;;;1.10;1.00;;;;;;;11.01;67.62;101148.65;1764618;80;21590;-52
2021/09/29 08:15:33;;;;;;;2.15;0.85;;;;;;;10.99;67.43;101154.07;1765660;78;21665;-52
2021/09/29 08:17:59;;;;;;;1.10;0.85;;;;;;;11.02;67.02;101149.53;1766682;80;21102;-52
2021/09/29 08:20:28;;;;;;;2.62;0.60;;;;;;;11.00;67.19;101147.77;1765532;80;21056;-52
2021/09/29 08:23:01;;;;;;;4.75;1.02;;;;;;;11.04;67.18;101152.61;1772849;80;21057;-52
2021/09/29 08:28:07;;;;;;;3.10;1.00;;;;;;;11.25;66.57;101151.98;1766019;80;21100;-52
2021/09/29 08:30:52;;;;;;;1.00;0.80;;;;;;;11.36;66.36;101147.64;1761138;80;21072;-52
2021/09/29 08:36:02;;;;;;;4.12;0.60;;;;;;;11.66;65.71;101146.70;1769143;80;21044;-52
2021/09/29 08:38:40;;;;;;;0.63;0.63;;;;;;;11.79;64.90;101136.47;1767503;80;22299;-52
2021/09/29 08:46:24;;;;;;;0.78;0.70;;;;;;;11.96;62.60;101140.88;1768825;80;20212;-51
2021/09/29 08:51:46;;;;;;;2.27;0.50;;;;;;;11.91;61.41;101136.56;1766964;79;21206;-51
2021/09/29 08:54:01;;;;;;;0.50;0.33;;;;;;;11.84;60.39;101139.89;1760287;80;21048;-51
2021/09/29 09:17:00;;;;;;;2.75;0.82;;;;;;;11.62;57.72;101137.42;1836528;77;21993;-52
2021/09/29 09:19:29;;;;;;;1.10;0.60;;;;;;;11.60;57.90;101139.27;1837030;77;20968;-52
2021/09/29 09:22:01;;;;;;;1.17;0.40;;;;;;;11.64;57.93;101132.88;1839549;77;20929;-52
2021/09/29 09:24:32;;;;;;;0.80;0.50;;;;;;;11.68;57.34;101128.67;1836815;77;20886;-53
2021/09/29 09:27:05;;;;;;;0.30;0.30;;;;;;;11.73;57.42;101130.78;1838999;77;20929;-52
2021/09/29 09:29:44;;;;;;;0.37;0.30;;;;;;;11.81;57.04;101126.98;1838160;77;21106;-53
2021/09/29 09:32:12;;;;;;;3.58;0.40;;;;;;;11.88;56.89;101125.86;1824819;77;20894;-53
2021/09/29 09:34:38;;;;;;;0.40;0.30;;;;;;;11.94;56.59;101128.34;1804179;78;20875;-53
2021/09/29 09:37:12;;;;;;;1.80;0.40;;;;;;;11.97;56.21;101130.96;1806727;78;20961;-54
2021/09/29 09:39:40;;;;;;;0.60;0.40;;;;;;;11.94;56.21;101128.34;1802274;78;21693;-52
2021/09/29 09:42:08;;;;;;;2.60;0.40;;;;;;;11.91;55.85;101132.02;1804557;78;21491;-53
2021/09/29 09:44:37;;;;;;;5.70;0.40;;;;;;;11.88;55.73;101135.30;1804091;78;20933;-53
2021/09/29 09:47:14;;;;;;;1.15;0.57;;;;;;;11.84;55.31;101133.61;1767638;80;20903;-53
2021/09/29 09:49:54;;;;;;;3.05;0.40;;;;;;;11.78;55.68;101137.40;1733675;81;20976;-53
2021/09/29 09:52:44;;;;;;;1.57;0.35;;;;;;;11.77;55.73;101135.63;1741819;81;21500;-53
2021/09/29 09:55:17;;;;;;;0.60;0.40;;;;;;;11.77;55.73;101135.63;1743955;81;21712;-52
2021/09/29 09:57:44;;;;;;;2.98;0.40;;;;;;;11.90;55.60;101133.45;1722747;81;21053;-51
2021/09/29 10:00:13;;;;;;;0.55;0.45;;;;;;;11.93;55.55;101130.62;1719437;82;21056;-52
2021/09/29 10:02:46;;;;;;;2.35;0.42;;;;;;;11.96;55.19;101134.12;1719431;82;21761;-52
2021/09/29 10:05:18;;;;;;;2.10;0.50;;;;;;;11.99;55.49;101139.90;1722665;82;21096;-52
2021/09/29 10:07:46;;;;;;;2.12;0.50;;;;;;;11.95;55.36;101144.50;1721197;82;21147;-51
2021/09/29 10:10:23;;;;;;;15.23;2.37;;;;;;;11.92;54.84;101136.95;1720853;82;21084;-52
2021/09/29 10:13:02;;;;;;;1.77;0.50;;;;;;;11.84;55.84;101137.20;1716294;82;21120;-52
2021/09/29 10:23:57;;;;;;;0.50;0.40;;;;;;;11.83;56.14;101144.88;1718226;81;21127;-52
2021/09/29 10:26:25;;;;;;;2.15;0.40;;;;;;;11.77;56.06;101139.67;1714728;82;21049;-53
2021/09/29 10:29:10;;;;;;;1.02;0.50;;;;;;;11.74;56.35;101132.55;1678426;82;21625;-53
2021/09/29 10:34:27;;;;;;;0.85;0.42;;;;;;;11.71;56.34;101143.42;1730012;81;21574;-52
2021/09/29 10:42:26;;;;;;;1.75;0.60;;;;;;;11.71;57.24;101136.68;1729571;81;21065;-53
2021/09/29 10:53:19;;;;;;;0.53;0.53;;;;;;;11.84;56.77;101125.05;1732564;81;21459;-52
2021/09/29 11:09:17;;;;;;;0.65;0.60;;;;;;;11.81;57.11;101114.38;1750611;81;20985;-52
2021/09/29 11:11:49;;;;;;;0.57;0.50;;;;;;;11.86;56.94;101108.36;1742549;81;21092;-52
2021/09/29 11:30:27;;;;;;;1.35;0.60;;;;;;;11.74;57.32;101106.01;1741806;81;21068;-52
2021/09/29 11:33:00;;;;;;;2.55;0.95;;;;;;;11.70;57.47;101109.28;1741883;81;21077;-52
2021/09/29 12:08:15;;;;;;;2.65;1.10;;;;;;;11.99;57.84;101097.58;1741960;81;22108;-52
2021/09/29 12:10:36;;;;;;;4.92;1.10;;;;;;;11.94;58.33;101101.37;1747834;81;21311;-52
2021/09/29 12:13:07;;;;;;;2.35;1.60;;;;;;;11.92;58.55;101105.92;1742458;81;20894;-51
2021/09/29 12:15:34;;;;;;;1.35;1.10;;;;;;;11.87;58.69;101096.64;1746518;81;20962;-51
2021/09/29 12:18:13;;;;;;;2.98;1.20;;;;;;;11.83;59.05;101101.70;1741839;81;20907;-52
2021/09/29 12:20:51;;;;;;;3.20;1.50;;;;;;;11.88;59.21;101106.51;1745328;81;22199;-52
2021/09/29 12:23:18;;;;;;;1.60;1.00;;;;;;;11.92;59.05;101096.02;1743295;81;20957;-51
2021/09/29 12:25:50;;;;;;;1.70;1.25;;;;;;;11.95;58.84;101089.64;1724520;81;21432;-52
2021/09/29 12:31:44;;;;;;;4.03;2.30;;;;;;;11.94;59.18;101094.16;1744289;81;21345;-52
2021/09/29 12:34:09;;;;;;;3.15;1.47;;;;;;;11.92;59.20;101098.71;1739467;81;21157;-52
2021/09/29 12:36:03;;;;;;;1.70;1.60;;;;;;;11.84;59.28;101101.24;1738860;81;20973;-52
2021/09/29 12:38:37;;;;;;;2.90;1.35;;;;;;;11.79;59.52;101104.09;1744051;81;20899;-52
2021/09/29 12:41:05;;;;;;;4.45;1.67;;;;;;;11.78;59.70;101096.05;1744964;81;21140;-51
2021/09/29 12:43:31;;;;;;;2.52;1.52;;;;;;;11.77;59.68;101099.21;1740858;81;21973;-52
2021/09/29 12:45:58;;;;;;;2.30;2.10;;;;;;;11.77;59.68;101096.98;1741194;81;22617;-51
2021/09/29 12:48:27;;;;;;;2.95;1.92;;;;;;;11.77;59.77;101096.98;1739669;81;21448;-52
2021/09/29 12:53:35;;;;;;;8.83;1.20;;;;;;;11.78;60.14;101098.28;1746035;81;22083;-52
2021/09/29 12:56:04;;;;;;;4.42;1.45;;;;;;;11.79;60.23;101102.75;1748593;81;21378;-52
2021/09/29 12:58:31;;;;;;;1.80;1.40;;;;;;;11.81;60.21;101104.94;1741820;81;21116;-51
2021/09/29 13:00:59;;;;;;;4.00;1.40;;;;;;;11.81;60.20;101100.89;1736657;81;21030;-51
2021/09/29 13:03:26;;;;;;;1.60;1.30;;;;;;;11.82;60.08;101101.78;1737339;81;21344;-52
2021/09/29 13:05:55;;;;;;;1.20;1.00;;;;;;;11.79;60.33;101097.82;1734963;81;21049;-52
2021/09/29 13:08:21;;;;;;;1.77;1.52;;;;;;;11.78;60.42;101094.70;1735292;81;22088;-52
2021/09/29 13:10:48;;;;;;;3.60;1.72;;;;;;;11.76;60.62;101089.34;1735583;81;21764;-52
2021/09/29 13:13:15;;;;;;;1.57;1.22;;;;;;;11.74;60.60;101095.22;1736627;81;21002;-52
2021/09/29 13:15:45;;;;;;;1.25;1.15;;;;;;;11.72;60.77;101100.69;1738230;81;21025;-51
2021/09/29 13:18:22;;;;;;;1.52;1.32;;;;;;;11.71;61.11;101103.42;1748274;81;20973;-52
2021/09/29 13:20:48;;;;;;;4.37;1.60;;;;;;;11.69;61.02;101103.47;1754449;81;21072;-52
2021/09/29 13:23:23;;;;;;;4.72;1.85;;;;;;;11.67;61.11;101095.00;1748132;81;21100;-51
2021/09/29 13:36:35;;;;;;;4.17;1.90;;;;;;;11.62;61.14;101098.32;1658126;84;21717;-53
2021/09/29 13:39:11;;;;;;;4.08;1.35;;;;;;;11.60;61.28;101092.08;1736911;81;20856;-52
2021/09/29 13:41:38;;;;;;;5.25;1.55;;;;;;;11.59;61.24;101089.84;1736038;80;21041;-52
2021/09/29 13:44:05;;;;;;;1.70;1.30;;;;;;;11.63;61.19;101094.70;1738427;81;21197;-52
2021/09/29 13:46:31;;;;;;;2.40;1.32;;;;;;;11.67;61.15;101093.65;1736159;80;21093;-52
2021/09/29 13:48:59;;;;;;;1.20;1.10;;;;;;;11.70;61.22;101098.50;1732003;81;21078;-52
2021/09/29 13:51:27;;;;;;;4.72;1.50;;;;;;;11.77;61.11;101098.33;1737138;80;21099;-52